createdAt,value
2022-12-05T00:01:38.529Z,97327.00
2022-12-05T00:04:09.629Z,97323.00
2022-12-05T00:06:38.858Z,97323.00
2022-12-05T00:09:07.853Z,97332.00
2022-12-05T00:11:39.161Z,97325.00
2022-12-05T00:14:07.922Z,97313.00
2022-12-05T00:16:37.502Z,97322.00
2022-12-05T00:19:06.341Z,97321.00
2022-12-05T00:21:35.597Z,97324.00
2022-12-05T00:24:05.261Z,97322.00
2022-12-05T00:26:32.725Z,97318.00
2022-12-05T00:28:59.507Z,97308.00
2022-12-05T00:31:27.083Z,97312.00
2022-12-05T00:33:54.612Z,97314.00
2022-12-05T00:36:27.978Z,97316.00
2022-12-05T00:38:55.290Z,97313.00
2022-12-05T00:41:25.534Z,97310.00
2022-12-05T00:43:52.672Z,97319.00
2022-12-05T00:46:22.721Z,97324.00
2022-12-05T00:48:52.204Z,97314.00
2022-12-05T00:51:28.934Z,97325.00
2022-12-05T00:53:59.264Z,97315.00
2022-12-05T00:56:27.689Z,97315.00
2022-12-05T00:58:56.550Z,97319.00
2022-12-05T01:01:26.811Z,97321.00
2022-12-05T01:03:57.756Z,97329.00
2022-12-05T01:06:25.497Z,97325.00
2022-12-05T01:08:54.517Z,97341.00
2022-12-05T01:11:22.538Z,97340.00
2022-12-05T01:13:49.261Z,97341.00
2022-12-05T01:16:30.902Z,97323.00
2022-12-05T01:18:59.931Z,97332.00
2022-12-05T01:21:26.148Z,97341.00
2022-12-05T01:23:52.623Z,97337.00
2022-12-05T01:26:21.569Z,97330.00
2022-12-05T01:28:49.094Z,97333.00
2022-12-05T01:31:23.891Z,97339.00
2022-12-05T01:33:52.285Z,97339.00
2022-12-05T01:36:18.963Z,97333.00
2022-12-05T01:38:45.665Z,97335.00
2022-12-05T01:41:20.029Z,97344.00
2022-12-05T01:44:01.753Z,97336.00
2022-12-05T01:46:35.423Z,97333.00
2022-12-05T01:49:17.412Z,97346.00
2022-12-05T01:51:49.573Z,97330.00
2022-12-05T01:54:18.822Z,97342.00
2022-12-05T01:56:56.827Z,97340.00
2022-12-05T01:59:26.159Z,97344.00
2022-12-05T02:01:52.481Z,97338.00
2022-12-05T02:04:18.672Z,97340.00
2022-12-05T02:06:46.373Z,97346.00
2022-12-05T02:09:13.008Z,97354.00
2022-12-05T02:12:01.623Z,97338.00
2022-12-05T02:15:18.883Z,97350.00
2022-12-05T02:18:23.155Z,97350.00
2022-12-05T02:21:25.740Z,97344.00
2022-12-05T02:24:23.026Z,97348.00
2022-12-05T02:27:27.501Z,97361.00
2022-12-05T02:30:05.072Z,97366.00
2022-12-05T02:32:49.069Z,97359.00
2022-12-05T02:35:49.823Z,97364.00
2022-12-05T02:38:51.443Z,97365.00
2022-12-05T02:41:34.552Z,97359.00
2022-12-05T02:44:15.729Z,97372.00
2022-12-05T02:46:46.397Z,97374.00
2022-12-05T02:49:20.578Z,97359.00
2022-12-05T02:51:54.184Z,97363.00
2022-12-05T02:54:31.304Z,97359.00
2022-12-05T02:56:59.790Z,97361.00
2022-12-05T02:59:26.726Z,97365.00
2022-12-05T03:01:53.139Z,97362.00
2022-12-05T03:04:23.256Z,97359.00
2022-12-05T03:06:59.153Z,97368.00
2022-12-05T03:09:45.026Z,97364.00
2022-12-05T03:12:28.196Z,97371.00
2022-12-05T03:15:14.395Z,97370.00
2022-12-05T03:18:05.715Z,97372.00
2022-12-05T03:20:47.381Z,97368.00
2022-12-05T03:23:27.658Z,97374.00
2022-12-05T03:26:11.341Z,97374.00
2022-12-05T03:29:09.722Z,97369.00
2022-12-05T03:31:52.317Z,97388.00
2022-12-05T03:34:44.057Z,97379.00
2022-12-05T03:37:41.101Z,97384.00
2022-12-05T03:40:34.312Z,97390.00
2022-12-05T03:43:09.935Z,97386.00
2022-12-05T03:45:55.041Z,97374.00
2022-12-05T03:48:43.058Z,97385.00
2022-12-05T03:51:15.832Z,97393.00
2022-12-05T03:54:33.034Z,97372.00
2022-12-05T03:57:16.362Z,97380.00
2022-12-05T04:00:11.882Z,97387.00
2022-12-05T04:03:11.052Z,97389.00
2022-12-05T04:06:00.716Z,97392.00
2022-12-05T04:08:45.051Z,97389.00
2022-12-05T04:11:18.997Z,97386.00
2022-12-05T04:14:10.752Z,97386.00
2022-12-05T04:17:04.780Z,97384.00
2022-12-05T04:20:16.467Z,97389.00
2022-12-05T04:22:44.035Z,97373.00
2022-12-05T04:25:34.935Z,97374.00
2022-12-05T04:28:43.857Z,97390.00
2022-12-05T04:31:25.186Z,97399.00
2022-12-05T04:33:59.719Z,97385.00
2022-12-05T04:36:59.852Z,97403.00
2022-12-05T04:39:39.289Z,97384.00
2022-12-05T04:42:14.998Z,97411.00
2022-12-05T04:44:54.835Z,97393.00
2022-12-05T04:47:28.105Z,97410.00
2022-12-05T04:49:55.890Z,97401.00
2022-12-05T04:52:24.359Z,97406.00
2022-12-05T04:55:16.146Z,97396.00
2022-12-05T04:57:59.297Z,97402.00
2022-12-05T05:00:29.957Z,97400.00
2022-12-05T05:03:23.865Z,97401.00
2022-12-05T05:05:54.430Z,97404.00
2022-12-05T05:08:26.569Z,97401.00
2022-12-05T05:11:14.022Z,97401.00
2022-12-05T05:13:40.453Z,97405.00
2022-12-05T05:16:07.442Z,97400.00
2022-12-05T05:18:33.766Z,97409.00
2022-12-05T05:21:00.070Z,97409.00
2022-12-05T05:23:26.286Z,97421.00
2022-12-05T05:25:55.130Z,97425.00
2022-12-05T05:28:22.233Z,97419.00
2022-12-05T05:30:49.061Z,97421.00
2022-12-05T05:33:15.494Z,97432.00
2022-12-05T05:35:41.688Z,97413.00
2022-12-05T05:38:08.542Z,97414.00
2022-12-05T05:40:36.761Z,97407.00
2022-12-05T05:43:03.530Z,97417.00
2022-12-05T05:45:29.720Z,97425.00
2022-12-05T05:47:55.899Z,97416.00
2022-12-05T05:50:24.999Z,97407.00
2022-12-05T05:52:51.163Z,97410.00
2022-12-05T05:55:17.710Z,97421.00
2022-12-05T05:57:43.986Z,97436.00
2022-12-05T06:00:10.793Z,97420.00
2022-12-05T06:02:37.560Z,97421.00
2022-12-05T06:05:04.709Z,97415.00
2022-12-05T06:07:31.065Z,97438.00
2022-12-05T06:09:57.908Z,97443.00
2022-12-05T06:12:24.258Z,97437.00
2022-12-05T06:14:50.931Z,97429.00
2022-12-05T06:17:19.681Z,97445.00
2022-12-05T06:19:46.192Z,97432.00
2022-12-05T06:22:12.630Z,97435.00
2022-12-05T06:24:38.834Z,97435.00
2022-12-05T06:27:08.040Z,97437.00
2022-12-05T06:29:35.069Z,97419.00
2022-12-05T06:32:01.725Z,97455.00
2022-12-05T06:34:28.637Z,97450.00
2022-12-05T06:36:54.818Z,97449.00
2022-12-05T06:39:21.055Z,97450.00
2022-12-05T06:41:47.188Z,97439.00
2022-12-05T06:44:13.350Z,97442.00
2022-12-05T06:46:39.537Z,97458.00
2022-12-05T06:49:05.687Z,97451.00
2022-12-05T06:51:31.879Z,97452.00
2022-12-05T06:53:58.059Z,97454.00
2022-12-05T06:56:24.243Z,97451.00
2022-12-05T06:58:51.753Z,97459.00
2022-12-05T07:01:39.881Z,97461.00
2022-12-05T07:04:19.937Z,97457.00
2022-12-05T07:06:50.883Z,97443.00
2022-12-05T07:09:44.320Z,97461.00
2022-12-05T07:12:11.638Z,97472.00
2022-12-05T07:14:49.390Z,97465.00
2022-12-05T07:17:19.311Z,97466.00
2022-12-05T07:19:48.713Z,97467.00
2022-12-05T07:22:19.355Z,97477.00
2022-12-05T07:24:46.344Z,97485.00
2022-12-05T07:27:14.748Z,97489.00
2022-12-05T07:29:41.169Z,97481.00
2022-12-05T07:32:08.372Z,97485.00
2022-12-05T07:34:34.924Z,97483.00
2022-12-05T07:37:01.169Z,97492.00
2022-12-05T07:39:30.140Z,97504.00
2022-12-05T07:41:56.364Z,97491.00
2022-12-05T07:44:22.543Z,97505.00
2022-12-05T07:46:48.925Z,97496.00
2022-12-05T07:49:15.406Z,97500.00
2022-12-05T07:51:41.663Z,97492.00
2022-12-05T07:54:07.949Z,97501.00
2022-12-05T07:56:34.116Z,97509.00
2022-12-05T07:59:00.463Z,97500.00
2022-12-05T08:01:28.978Z,97502.00
2022-12-05T08:03:58.407Z,97513.00
2022-12-05T08:06:30.396Z,97498.00
2022-12-05T08:08:57.024Z,97514.00
2022-12-05T08:11:30.182Z,97522.00
2022-12-05T08:13:57.678Z,97519.00
2022-12-05T08:16:27.990Z,97520.00
2022-12-05T08:19:04.418Z,97533.00
2022-12-05T08:21:31.156Z,97519.00
2022-12-05T08:23:57.649Z,97536.00
2022-12-05T08:26:27.626Z,97533.00
2022-12-05T08:29:15.052Z,97527.00
2022-12-05T08:31:48.208Z,97535.00
2022-12-05T08:34:17.650Z,97537.00
2022-12-05T08:36:44.991Z,97549.00
2022-12-05T08:39:15.194Z,97545.00
2022-12-05T08:41:47.026Z,97556.00
2022-12-05T08:44:17.690Z,97553.00
2022-12-05T08:46:48.208Z,97557.00
2022-12-05T08:49:15.222Z,97550.00
2022-12-05T08:51:42.405Z,97568.00
2022-12-05T08:54:08.809Z,97548.00
2022-12-05T08:56:35.042Z,97559.00
2022-12-05T08:59:05.697Z,97543.00
2022-12-05T09:01:33.730Z,97549.00
2022-12-05T09:04:01.637Z,97560.00
2022-12-05T09:06:29.000Z,97560.00
2022-12-05T09:09:03.830Z,97548.00
2022-12-05T09:11:34.794Z,97568.00
2022-12-05T09:14:04.798Z,97549.00
2022-12-05T09:16:38.591Z,97556.00
2022-12-05T09:19:14.664Z,97562.00
2022-12-05T09:21:45.332Z,97568.00
2022-12-05T09:24:12.962Z,97569.00
2022-12-05T09:26:40.289Z,97573.00
2022-12-05T09:29:10.130Z,97570.00
2022-12-05T09:31:42.445Z,97555.00
2022-12-05T09:34:09.769Z,97562.00
2022-12-05T09:36:35.920Z,97557.00
2022-12-05T09:39:05.764Z,97569.00
2022-12-05T09:42:03.978Z,97570.00
2022-12-05T09:45:00.915Z,97576.00
2022-12-05T09:47:27.444Z,97571.00
2022-12-05T09:50:16.577Z,97582.00
2022-12-05T09:53:07.269Z,97589.00
2022-12-05T09:55:52.713Z,97594.00
2022-12-05T09:58:24.426Z,97578.00
2022-12-05T10:01:03.704Z,97576.00
2022-12-05T10:03:36.966Z,97573.00
2022-12-05T10:06:17.760Z,97579.00
2022-12-05T10:09:23.623Z,97586.00
2022-12-05T10:12:09.690Z,97573.00
2022-12-05T10:15:08.754Z,97574.00
2022-12-05T10:17:40.725Z,97577.00
2022-12-05T10:20:51.420Z,97570.00
2022-12-05T10:26:17.635Z,97581.00
2022-12-05T10:29:04.598Z,97577.00
2022-12-05T10:31:35.860Z,97579.00
2022-12-05T10:34:26.465Z,97575.00
2022-12-05T10:37:23.647Z,97573.00
2022-12-05T10:39:51.863Z,97565.00
2022-12-05T10:42:35.174Z,97566.00
2022-12-05T10:45:27.982Z,97562.00
2022-12-05T10:47:57.226Z,97587.00
2022-12-05T10:50:31.867Z,97556.00
2022-12-05T10:53:02.628Z,97570.00
2022-12-05T10:55:36.286Z,97561.00
2022-12-05T10:58:17.659Z,97572.00
2022-12-05T11:00:48.853Z,97559.00
2022-12-05T11:03:36.610Z,97559.00
2022-12-05T11:06:16.191Z,97567.00
2022-12-05T11:09:06.177Z,97565.00
2022-12-05T11:11:33.747Z,97551.00
2022-12-05T11:14:04.931Z,97556.00
2022-12-05T11:16:38.869Z,97556.00
2022-12-05T11:19:37.912Z,97562.00
2022-12-05T11:22:07.573Z,97548.00
2022-12-05T11:24:39.042Z,97551.00
2022-12-05T11:27:29.064Z,97554.00
2022-12-05T11:30:12.979Z,97543.00
2022-12-05T11:32:39.230Z,97536.00
2022-12-05T11:35:11.413Z,97554.00
2022-12-05T11:38:01.330Z,97557.00
2022-12-05T11:40:40.867Z,97561.00
2022-12-05T11:43:27.712Z,97563.00
2022-12-05T11:46:26.638Z,97564.00
2022-12-05T11:49:38.415Z,97560.00
2022-12-05T11:52:40.953Z,97567.00
2022-12-05T11:55:51.041Z,97567.00
2022-12-05T11:59:19.688Z,97562.00
2022-12-05T12:02:31.922Z,97566.00
2022-12-05T12:05:24.410Z,97560.00
2022-12-05T12:08:27.022Z,97560.00
2022-12-05T12:10:53.095Z,97561.00
2022-12-05T12:14:17.057Z,97564.00
2022-12-05T12:17:18.059Z,97561.00
2022-12-05T12:20:19.457Z,97565.00
2022-12-05T12:23:19.507Z,97556.00
2022-12-05T12:26:10.618Z,97560.00
2022-12-05T12:28:51.558Z,97558.00
2022-12-05T12:31:41.949Z,97556.00
2022-12-05T12:34:51.303Z,97575.00
2022-12-05T12:37:50.690Z,97561.00
2022-12-05T12:40:44.246Z,97564.00
2022-12-05T12:43:58.481Z,97552.00
2022-12-05T12:46:52.136Z,97558.00
2022-12-05T12:50:13.647Z,97557.00
2022-12-05T12:53:10.548Z,97561.00
2022-12-05T12:55:59.958Z,97569.00
2022-12-05T12:58:46.675Z,97565.00
2022-12-05T13:01:42.228Z,97557.00
2022-12-05T13:04:16.693Z,97577.00
2022-12-05T13:07:15.017Z,97569.00
2022-12-05T13:09:59.150Z,97558.00
2022-12-05T13:12:32.009Z,97553.00
2022-12-05T13:15:06.696Z,97559.00
2022-12-05T13:17:33.101Z,97566.00
2022-12-05T13:20:00.275Z,97563.00
2022-12-05T13:22:28.577Z,97572.00
2022-12-05T13:24:55.529Z,97549.00
2022-12-05T13:27:27.578Z,97555.00
2022-12-05T13:30:01.516Z,97569.00
2022-12-05T13:32:36.219Z,97562.00
2022-12-05T13:35:48.145Z,97553.00
2022-12-05T13:39:02.615Z,97558.00
2022-12-05T13:42:00.470Z,97553.00
2022-12-05T13:44:35.913Z,97558.00
2022-12-05T13:47:07.977Z,97559.00
2022-12-05T13:49:55.223Z,97567.00
2022-12-05T13:52:30.262Z,97570.00
2022-12-05T13:55:32.271Z,97564.00
2022-12-05T13:58:23.215Z,97558.00
2022-12-05T14:00:50.952Z,97569.00
2022-12-05T14:03:46.374Z,97576.00
2022-12-05T14:06:37.320Z,97569.00
2022-12-05T14:09:18.427Z,97567.00
2022-12-05T14:12:09.645Z,97574.00
2022-12-05T14:14:54.749Z,97575.00
2022-12-05T14:17:43.408Z,97551.00
2022-12-05T14:20:46.295Z,97561.00
2022-12-05T14:23:55.121Z,97573.00
2022-12-05T14:26:54.757Z,97571.00
2022-12-05T14:30:04.845Z,97580.00
2022-12-05T14:32:36.123Z,97574.00
2022-12-05T14:35:14.752Z,97576.00
2022-12-05T14:38:00.690Z,97578.00
2022-12-05T14:40:42.995Z,97569.00
2022-12-05T14:43:33.357Z,97578.00
2022-12-05T14:46:03.715Z,97584.00
2022-12-05T14:48:42.446Z,97576.00
2022-12-05T14:51:29.974Z,97587.00
2022-12-05T14:54:16.987Z,97582.00
2022-12-05T14:56:50.191Z,97587.00
2022-12-05T15:00:08.435Z,97572.00
2022-12-05T15:02:45.496Z,97573.00
2022-12-05T15:05:26.918Z,97585.00
2022-12-05T15:07:56.306Z,97573.00
2022-12-05T15:10:32.767Z,97591.00
2022-12-05T15:13:16.963Z,97585.00
2022-12-05T15:15:51.673Z,97598.00
2022-12-05T15:18:33.960Z,97601.00
2022-12-05T15:21:22.394Z,97592.00
2022-12-05T15:23:58.649Z,97604.00
2022-12-05T15:26:48.526Z,97599.00
2022-12-05T15:29:23.613Z,97603.00
2022-12-05T15:32:16.891Z,97602.00
2022-12-05T15:35:06.267Z,97611.00
2022-12-05T15:37:46.529Z,97597.00
2022-12-05T15:40:21.198Z,97607.00
2022-12-05T15:42:53.794Z,97623.00
2022-12-05T15:45:24.203Z,97623.00
2022-12-05T15:48:06.401Z,97628.00
2022-12-05T15:50:58.447Z,97623.00
2022-12-05T15:53:32.930Z,97625.00
2022-12-05T15:56:08.821Z,97617.00
2022-12-05T15:59:02.466Z,97614.00
2022-12-05T16:01:29.122Z,97623.00
2022-12-05T16:03:59.399Z,97627.00
2022-12-05T16:06:38.975Z,97627.00
2022-12-05T16:09:11.681Z,97611.00
2022-12-05T16:11:38.531Z,97618.00
2022-12-05T16:14:07.612Z,97625.00
2022-12-05T16:16:37.875Z,97630.00
2022-12-05T16:19:15.898Z,97617.00
2022-12-05T16:21:46.738Z,97620.00
2022-12-05T16:24:29.596Z,97612.00
2022-12-05T16:27:17.150Z,97621.00
2022-12-05T16:29:44.427Z,97620.00
2022-12-05T16:32:24.500Z,97625.00
2022-12-05T16:34:52.010Z,97639.00
2022-12-05T16:37:28.775Z,97613.00
2022-12-05T16:39:56.144Z,97630.00
2022-12-05T16:42:28.833Z,97633.00
2022-12-05T16:45:01.124Z,97631.00
2022-12-05T16:47:57.761Z,97635.00
2022-12-05T16:50:34.195Z,97640.00
2022-12-05T16:53:32.024Z,97634.00
2022-12-05T16:56:00.149Z,97636.00
2022-12-05T16:58:29.859Z,97649.00
2022-12-05T17:01:22.015Z,97648.00
2022-12-05T17:03:55.711Z,97655.00
2022-12-05T17:06:24.676Z,97654.00
2022-12-05T17:08:53.378Z,97652.00
2022-12-05T17:11:31.799Z,97630.00
2022-12-05T17:13:58.803Z,97648.00
2022-12-05T17:16:25.938Z,97635.00
2022-12-05T17:18:52.756Z,97632.00
2022-12-05T17:21:24.075Z,97638.00
2022-12-05T17:23:50.707Z,97641.00
2022-12-05T17:26:22.240Z,97641.00
2022-12-05T17:28:49.662Z,97651.00
2022-12-05T17:31:20.624Z,97657.00
2022-12-05T17:33:48.569Z,97644.00
2022-12-05T17:36:15.773Z,97664.00
2022-12-05T17:38:43.332Z,97655.00
2022-12-05T17:41:19.220Z,97654.00
2022-12-05T17:43:46.553Z,97651.00
2022-12-05T17:46:19.822Z,97641.00
2022-12-05T17:48:47.328Z,97660.00
2022-12-05T17:51:13.950Z,97648.00
2022-12-05T17:53:42.098Z,97662.00
2022-12-05T17:56:08.444Z,97638.00
2022-12-05T17:58:34.745Z,97645.00
2022-12-05T18:01:01.663Z,97631.00
2022-12-05T18:03:29.251Z,97644.00
2022-12-05T18:05:55.525Z,97640.00
2022-12-05T18:08:23.296Z,97660.00
2022-12-05T18:10:50.680Z,97651.00
2022-12-05T18:13:17.737Z,97648.00
2022-12-05T18:15:47.607Z,97656.00
2022-12-05T18:18:16.914Z,97639.00
2022-12-05T18:20:43.572Z,97652.00
2022-12-05T18:23:10.018Z,97656.00
2022-12-05T18:25:38.390Z,97650.00
2022-12-05T18:28:04.596Z,97670.00
2022-12-05T18:30:30.823Z,97667.00
2022-12-05T18:32:57.001Z,97662.00
2022-12-05T18:35:39.540Z,97669.00
2022-12-05T18:38:10.789Z,97667.00
2022-12-05T18:40:37.220Z,97666.00
2022-12-05T18:43:03.689Z,97681.00
2022-12-05T18:45:31.981Z,97675.00
2022-12-05T18:48:09.751Z,97670.00
2022-12-05T18:50:42.420Z,97687.00
2022-12-05T18:53:08.717Z,97682.00
2022-12-05T18:58:21.249Z,97679.00
2022-12-05T19:00:47.518Z,97688.00
2022-12-05T19:03:13.681Z,97682.00
2022-12-05T19:05:41.930Z,97681.00
2022-12-05T19:08:08.354Z,97670.00
2022-12-05T19:10:35.666Z,97673.00
2022-12-05T19:13:01.805Z,97674.00
2022-12-05T19:15:28.027Z,97683.00
2022-12-05T19:17:54.173Z,97674.00
2022-12-05T19:20:20.593Z,97685.00
2022-12-05T19:22:46.763Z,97691.00
2022-12-05T19:25:18.441Z,97675.00
2022-12-05T19:27:44.600Z,97693.00
2022-12-05T19:30:11.287Z,97685.00
2022-12-05T19:32:40.366Z,97678.00
2022-12-05T19:35:07.608Z,97692.00
2022-12-05T19:37:35.058Z,97701.00
2022-12-05T19:40:01.412Z,97685.00
2022-12-05T19:42:28.787Z,97697.00
2022-12-05T19:44:54.959Z,97704.00
2022-12-05T19:47:21.095Z,97703.00
2022-12-05T19:49:47.335Z,97699.00
2022-12-05T19:52:17.131Z,97709.00
2022-12-05T19:54:44.363Z,97690.00
2022-12-05T19:57:11.431Z,97699.00
2022-12-05T19:59:37.763Z,97705.00
2022-12-05T20:02:04.216Z,97697.00
2022-12-05T20:04:30.571Z,97694.00
2022-12-05T20:06:56.740Z,97711.00
2022-12-05T20:09:22.912Z,97712.00
2022-12-05T20:11:54.720Z,97705.00
2022-12-05T20:14:24.175Z,97709.00
2022-12-05T20:16:50.938Z,97705.00
2022-12-05T20:19:17.336Z,97708.00
2022-12-05T20:21:47.610Z,97688.00
2022-12-05T20:24:14.231Z,97682.00
2022-12-05T20:26:43.542Z,97700.00
2022-12-05T20:29:10.474Z,97685.00
2022-12-05T20:31:40.610Z,97686.00
2022-12-05T20:34:12.594Z,97692.00
2022-12-05T20:36:38.767Z,97698.00
2022-12-05T20:39:16.950Z,97684.00
2022-12-05T20:41:44.332Z,97701.00
2022-12-05T20:44:15.157Z,97700.00
2022-12-05T20:46:41.908Z,97707.00
2022-12-05T20:49:09.110Z,97695.00
2022-12-05T20:51:35.313Z,97685.00
2022-12-05T20:54:04.521Z,97695.00
2022-12-05T20:56:33.111Z,97693.00
2022-12-05T20:59:03.299Z,97692.00
2022-12-05T21:01:33.324Z,97685.00
2022-12-05T21:04:00.469Z,97693.00
2022-12-05T21:06:32.985Z,97687.00
2022-12-05T21:09:00.731Z,97685.00
2022-12-05T21:11:29.102Z,97678.00
2022-12-05T21:13:59.439Z,97703.00
2022-12-05T21:16:26.068Z,97698.00
2022-12-05T21:18:52.631Z,97674.00
2022-12-05T21:21:22.534Z,97687.00
2022-12-05T21:23:55.597Z,97692.00
2022-12-05T21:26:24.654Z,97684.00
2022-12-05T21:28:51.589Z,97673.00
2022-12-05T21:31:28.761Z,97677.00
2022-12-05T21:33:59.708Z,97682.00
2022-12-05T21:36:29.380Z,97686.00
2022-12-05T21:38:56.642Z,97680.00
2022-12-05T21:41:24.180Z,97674.00
2022-12-05T21:43:54.561Z,97678.00
2022-12-05T21:46:25.428Z,97671.00
2022-12-05T21:48:52.025Z,97677.00
2022-12-05T21:51:18.804Z,97678.00
2022-12-05T21:53:44.960Z,97672.00
2022-12-05T21:56:14.786Z,97692.00
2022-12-05T21:58:42.714Z,97682.00
2022-12-05T22:01:11.798Z,97691.00
2022-12-05T22:03:38.392Z,97683.00
2022-12-05T22:06:10.293Z,97688.00
2022-12-05T22:08:38.466Z,97686.00
2022-12-05T22:11:24.141Z,97705.00
2022-12-05T22:13:52.147Z,97686.00
2022-12-05T22:16:19.484Z,97693.00
2022-12-05T22:18:46.601Z,97682.00
2022-12-05T22:21:21.149Z,97692.00
2022-12-05T22:23:48.683Z,97691.00
2022-12-05T22:26:20.699Z,97696.00
2022-12-05T22:28:50.029Z,97693.00
2022-12-05T22:31:16.846Z,97696.00
2022-12-05T22:33:44.603Z,97697.00
2022-12-05T22:36:15.001Z,97698.00
2022-12-05T22:38:44.666Z,97684.00
2022-12-05T22:41:18.138Z,97691.00
2022-12-05T22:43:47.151Z,97672.00
2022-12-05T22:46:19.754Z,97685.00
2022-12-05T22:48:47.997Z,97686.00
2022-12-05T22:51:15.975Z,97676.00
2022-12-05T22:53:42.596Z,97680.00
2022-12-05T22:56:13.096Z,97682.00
2022-12-05T22:58:40.696Z,97687.00
2022-12-05T23:01:15.383Z,97688.00
2022-12-05T23:03:43.655Z,97688.00
2022-12-05T23:06:12.559Z,97677.00
2022-12-05T23:08:42.140Z,97682.00
2022-12-05T23:11:09.863Z,97680.00
2022-12-05T23:13:37.727Z,97690.00
2022-12-05T23:16:14.070Z,97685.00
2022-12-05T23:18:47.948Z,97674.00
2022-12-05T23:21:28.944Z,97690.00
2022-12-05T23:23:59.474Z,97660.00
2022-12-05T23:26:36.306Z,97670.00
2022-12-05T23:29:03.723Z,97660.00
2022-12-05T23:31:30.060Z,97647.00
2022-12-05T23:34:01.452Z,97667.00
2022-12-05T23:36:31.706Z,97656.00
2022-12-05T23:38:58.034Z,97654.00
2022-12-05T23:41:25.529Z,97655.00
2022-12-05T23:43:52.943Z,97658.00
2022-12-05T23:46:23.334Z,97649.00
2022-12-05T23:48:50.698Z,97666.00
2022-12-05T23:51:25.512Z,97661.00
2022-12-05T23:54:01.934Z,97643.00
2022-12-05T23:56:31.987Z,97652.00
2022-12-05T23:58:59.598Z,97655.00
